createdAt,value
2023-03-01T00:00:20.809Z,24.40
2023-03-01T00:02:51.063Z,24.40
2023-03-01T00:05:21.407Z,24.40
2023-03-01T00:07:51.756Z,24.40
2023-03-01T00:10:22.067Z,24.50
2023-03-01T00:12:52.587Z,24.50
2023-03-01T00:15:22.854Z,24.50
2023-03-01T00:17:53.080Z,24.50
2023-03-01T00:20:23.308Z,24.50
2023-03-01T00:22:53.555Z,24.60
2023-03-01T00:25:24.184Z,24.60
2023-03-01T00:27:54.425Z,24.60
2023-03-01T00:30:24.690Z,24.60
2023-03-01T00:32:55.367Z,24.70
2023-03-01T00:35:25.620Z,24.60
2023-03-01T00:38:00.855Z,24.60
2023-03-01T00:40:32.176Z,24.60
2023-03-01T00:43:02.541Z,24.60
2023-03-01T00:45:33.888Z,24.60
2023-03-01T00:48:04.251Z,24.50
2023-03-01T00:50:34.538Z,24.50
2023-03-01T00:53:05.046Z,24.50
2023-03-01T00:55:35.333Z,24.50
2023-03-01T00:58:05.794Z,24.50
2023-03-01T01:00:36.405Z,24.50
2023-03-01T01:03:07.033Z,24.50
2023-03-01T01:05:38.942Z,24.50
2023-03-01T01:08:09.808Z,24.50
2023-03-01T01:10:40.045Z,24.50
2023-03-01T01:13:10.897Z,24.50
2023-03-01T01:15:41.860Z,24.50
2023-03-01T01:18:12.151Z,24.40
2023-03-01T01:20:42.393Z,24.50
2023-03-01T01:23:12.687Z,24.40
2023-03-01T01:25:43.046Z,24.50
2023-03-01T01:28:13.334Z,24.50
2023-03-01T01:30:43.535Z,24.40
2023-03-01T01:33:13.921Z,24.40
2023-03-01T01:35:44.228Z,24.40
2023-03-01T01:38:16.238Z,24.40
2023-03-01T01:40:51.047Z,24.40
2023-03-01T01:43:33.028Z,24.40
2023-03-01T01:46:19.768Z,24.40
2023-03-01T01:49:12.376Z,24.40
2023-03-01T01:51:47.032Z,24.40
2023-03-01T01:54:23.373Z,24.40
2023-03-01T01:57:05.678Z,24.40
2023-03-01T01:59:37.108Z,24.40
2023-03-01T02:02:08.399Z,24.40
2023-03-01T02:04:38.758Z,24.40
2023-03-01T02:07:27.788Z,24.40
2023-03-01T02:09:58.035Z,24.50
2023-03-01T02:12:28.891Z,24.50
2023-03-01T02:14:59.360Z,24.50
2023-03-01T02:17:29.762Z,24.50
2023-03-01T02:20:09.651Z,24.60
2023-03-01T02:22:41.228Z,24.60
2023-03-01T02:25:22.678Z,24.60
2023-03-01T02:28:22.848Z,24.70
2023-03-01T02:31:12.113Z,24.70
2023-03-01T02:33:43.176Z,24.70
2023-03-01T02:36:18.912Z,24.70
2023-03-01T02:38:50.191Z,24.70
2023-03-01T02:41:22.383Z,24.80
2023-03-01T02:43:52.672Z,24.90
2023-03-01T02:46:28.017Z,24.80
2023-03-01T02:49:00.819Z,24.90
2023-03-01T02:51:34.000Z,24.90
2023-03-01T02:54:22.146Z,24.90
2023-03-01T02:56:52.883Z,24.90
2023-03-01T02:59:27.847Z,24.90
2023-03-01T03:01:58.172Z,25.00
2023-03-01T03:04:28.397Z,25.00
2023-03-01T03:06:58.814Z,25.00
2023-03-01T03:09:29.191Z,25.00
2023-03-01T03:11:59.372Z,25.00
2023-03-01T03:14:29.581Z,25.00
2023-03-01T03:16:59.772Z,25.00
2023-03-01T03:19:30.148Z,24.90
2023-03-01T03:22:00.484Z,25.00
2023-03-01T03:24:40.749Z,25.00
2023-03-01T03:27:11.459Z,25.00
2023-03-01T03:29:41.838Z,25.00
2023-03-01T03:32:12.177Z,25.00
2023-03-01T03:34:42.549Z,25.00
2023-03-01T03:37:32.418Z,25.00
2023-03-01T03:40:03.147Z,25.00
2023-03-01T03:42:34.433Z,25.00
2023-03-01T03:45:04.640Z,25.00
2023-03-01T03:47:34.844Z,25.10
2023-03-01T03:50:05.098Z,25.10
2023-03-01T03:52:35.290Z,25.10
2023-03-01T03:55:05.527Z,25.10
2023-03-01T03:57:35.710Z,25.10
2023-03-01T04:00:07.909Z,25.10
2023-03-01T04:02:38.187Z,25.10
2023-03-01T04:05:13.421Z,25.10
2023-03-01T04:07:44.589Z,25.10
2023-03-01T04:10:20.418Z,25.20
2023-03-01T04:12:50.689Z,25.20
2023-03-01T04:15:21.504Z,25.20
2023-03-01T04:17:51.755Z,25.20
2023-03-01T04:20:29.052Z,25.20
2023-03-01T04:23:23.108Z,25.20
2023-03-01T04:25:57.558Z,25.20
2023-03-01T04:28:36.817Z,25.20
2023-03-01T04:31:15.529Z,25.30
2023-03-01T04:33:54.920Z,25.20
2023-03-01T04:36:30.871Z,25.30
2023-03-01T04:39:01.892Z,25.30
2023-03-01T04:41:32.077Z,25.30
2023-03-01T04:44:02.739Z,25.30
2023-03-01T04:46:33.501Z,25.30
2023-03-01T04:49:04.225Z,25.30
2023-03-01T04:51:37.595Z,25.30
2023-03-01T04:54:11.322Z,25.30
2023-03-01T04:56:42.058Z,25.30
2023-03-01T04:59:13.019Z,25.40
2023-03-01T05:01:45.521Z,25.40
2023-03-01T05:04:16.022Z,25.40
2023-03-01T05:06:47.354Z,25.40
2023-03-01T05:09:17.642Z,25.50
2023-03-01T05:11:47.827Z,25.50
2023-03-01T05:14:18.234Z,25.40
2023-03-01T05:16:48.398Z,25.40
2023-03-01T05:19:18.810Z,25.50
2023-03-01T05:22:07.454Z,25.50
2023-03-01T05:24:38.929Z,25.50
2023-03-01T05:27:09.214Z,25.50
2023-03-01T05:29:39.477Z,25.50
2023-03-01T05:32:11.473Z,25.50
2023-03-01T05:34:41.706Z,25.50
2023-03-01T05:37:11.982Z,25.50
2023-03-01T05:39:44.799Z,25.50
2023-03-01T05:42:15.373Z,25.50
2023-03-01T05:44:45.594Z,25.50
2023-03-01T05:47:15.809Z,25.50
2023-03-01T05:49:46.013Z,25.50
2023-03-01T05:52:16.248Z,25.50
2023-03-01T05:54:46.833Z,25.50
2023-03-01T05:57:17.602Z,25.50
2023-03-01T05:59:48.916Z,25.50
2023-03-01T06:02:19.213Z,25.50
2023-03-01T06:04:49.516Z,25.50
2023-03-01T06:07:19.955Z,25.50
2023-03-01T06:09:50.354Z,25.50
2023-03-01T06:12:20.725Z,25.50
2023-03-01T06:14:51.119Z,25.50
2023-03-01T06:17:21.420Z,25.50
2023-03-01T06:19:51.605Z,25.50
2023-03-01T06:22:21.797Z,25.50
2023-03-01T06:24:52.452Z,25.50
2023-03-01T06:27:22.676Z,25.50
2023-03-01T06:29:52.917Z,25.50
2023-03-01T06:32:23.344Z,25.50
2023-03-01T06:34:53.899Z,25.50
2023-03-01T06:37:24.153Z,25.50
2023-03-01T06:39:54.397Z,25.50
2023-03-01T06:42:24.762Z,25.50
2023-03-01T06:44:54.925Z,25.50
2023-03-01T06:47:25.171Z,25.50
2023-03-01T06:49:55.498Z,25.50
2023-03-01T06:52:25.888Z,25.50
2023-03-01T06:54:56.148Z,25.50
2023-03-01T06:57:26.318Z,25.50
2023-03-01T06:59:56.620Z,25.60
2023-03-01T07:02:27.221Z,25.50
2023-03-01T07:04:57.977Z,25.50
2023-03-01T07:07:28.340Z,25.50
2023-03-01T07:09:58.584Z,25.50
2023-03-01T07:12:28.889Z,25.50
2023-03-01T07:14:59.079Z,25.50
2023-03-01T07:17:29.332Z,25.50
2023-03-01T07:20:00.154Z,25.50
2023-03-01T07:22:30.349Z,25.50
2023-03-01T07:25:00.529Z,25.50
2023-03-01T07:27:30.798Z,25.50
2023-03-01T07:30:00.979Z,25.50
2023-03-01T07:32:31.398Z,25.50
2023-03-01T07:35:01.699Z,25.50
2023-03-01T07:37:31.921Z,25.50
2023-03-01T07:40:02.070Z,25.50
2023-03-01T07:42:32.352Z,25.50
2023-03-01T07:45:02.501Z,25.50
2023-03-01T07:47:32.800Z,25.50
2023-03-01T07:50:03.881Z,25.50
2023-03-01T07:52:34.208Z,25.50
2023-03-01T07:55:04.398Z,25.50
2023-03-01T07:57:34.654Z,25.50
2023-03-01T08:00:04.936Z,25.50
2023-03-01T08:02:35.664Z,25.50
2023-03-01T08:05:06.274Z,25.40
2023-03-01T08:07:37.257Z,25.50
2023-03-01T08:10:07.834Z,25.50
2023-03-01T08:12:38.169Z,25.50
2023-03-01T08:15:08.983Z,25.40
2023-03-01T08:17:39.366Z,25.40
2023-03-01T08:20:10.353Z,25.40
2023-03-01T08:22:40.725Z,25.40
2023-03-01T08:25:11.759Z,25.40
2023-03-01T08:27:42.325Z,25.40
2023-03-01T08:30:13.291Z,25.40
2023-03-01T08:32:43.782Z,25.40
2023-03-01T08:35:14.164Z,25.40
2023-03-01T08:37:44.505Z,25.40
2023-03-01T08:40:16.294Z,25.40
2023-03-01T08:42:46.850Z,25.40
2023-03-01T08:45:20.789Z,25.40
2023-03-01T08:47:51.118Z,25.40
2023-03-01T08:50:21.385Z,25.30
2023-03-01T08:52:51.630Z,25.30
2023-03-01T08:55:21.882Z,25.30
2023-03-01T08:57:52.061Z,25.30
2023-03-01T09:00:22.768Z,25.30
2023-03-01T09:02:53.090Z,25.30
2023-03-01T09:05:23.398Z,25.30
2023-03-01T09:07:53.925Z,25.30
2023-03-01T09:10:24.222Z,25.30
2023-03-01T09:12:55.308Z,25.30
2023-03-01T09:15:25.483Z,25.30
2023-03-01T09:17:55.790Z,25.30
2023-03-01T09:20:26.041Z,25.30
2023-03-01T09:22:56.329Z,25.30
2023-03-01T09:25:26.903Z,25.30
2023-03-01T09:27:58.500Z,25.20
2023-03-01T09:30:28.849Z,25.30
2023-03-01T09:33:00.997Z,25.30
2023-03-01T09:35:31.430Z,25.20
2023-03-01T09:38:02.009Z,25.20
2023-03-01T09:40:32.843Z,25.20
2023-03-01T09:43:19.981Z,25.20
2023-03-01T09:45:52.708Z,25.20
2023-03-01T09:48:29.994Z,25.20
2023-03-01T09:51:01.060Z,25.20
2023-03-01T09:53:37.994Z,25.20
2023-03-01T09:56:13.979Z,25.20
2023-03-01T09:58:59.953Z,25.20
2023-03-01T10:01:37.984Z,25.20
2023-03-01T10:04:52.501Z,25.20
2023-03-01T10:07:50.465Z,25.20
2023-03-01T10:10:31.271Z,25.20
2023-03-01T10:13:03.233Z,25.10
2023-03-01T10:15:48.806Z,25.10
2023-03-01T10:18:27.497Z,25.20
2023-03-01T10:21:23.441Z,25.20
2023-03-01T10:23:56.131Z,25.10
2023-03-01T10:26:57.293Z,25.10
2023-03-01T10:30:13.925Z,25.20
2023-03-01T10:32:44.306Z,25.10
2023-03-01T10:35:32.381Z,25.10
2023-03-01T10:38:10.205Z,25.10
2023-03-01T10:40:53.442Z,25.00
2023-03-01T10:43:25.029Z,25.10
2023-03-01T10:45:55.604Z,25.00
2023-03-01T10:48:31.477Z,25.10
2023-03-01T10:51:04.871Z,25.00
2023-03-01T10:53:41.560Z,25.00
2023-03-01T10:56:18.115Z,25.00
2023-03-01T10:59:05.532Z,25.00
2023-03-01T11:01:39.801Z,25.00
2023-03-01T11:04:10.132Z,25.00
2023-03-01T11:06:45.109Z,25.00
2023-03-01T11:09:25.404Z,25.00
2023-03-01T11:12:00.928Z,25.00
2023-03-01T11:14:43.477Z,25.00
2023-03-01T11:17:38.882Z,25.00
2023-03-01T11:20:15.616Z,25.00
2023-03-01T11:22:57.715Z,25.00
2023-03-01T11:25:31.241Z,25.00
2023-03-01T11:28:05.605Z,24.90
2023-03-01T11:30:44.513Z,24.90
2023-03-01T11:33:23.905Z,24.90
2023-03-01T11:36:28.685Z,24.90
2023-03-01T11:39:00.472Z,24.90
2023-03-01T11:41:35.639Z,24.90
2023-03-01T11:44:23.534Z,24.90
2023-03-01T11:47:34.403Z,24.90
2023-03-01T11:50:22.859Z,24.90
2023-03-01T11:53:19.646Z,24.90
2023-03-01T11:56:19.186Z,24.90
2023-03-01T11:58:49.353Z,24.90
2023-03-01T12:01:42.535Z,24.80
2023-03-01T12:04:25.126Z,24.80
2023-03-01T12:07:04.586Z,24.90
2023-03-01T12:09:47.175Z,24.90
2023-03-01T12:12:40.494Z,24.80
2023-03-01T12:15:31.728Z,24.80
2023-03-01T12:18:29.093Z,24.80
2023-03-01T12:21:32.977Z,24.80
2023-03-01T12:24:31.996Z,24.80
2023-03-01T12:27:14.492Z,24.80
2023-03-01T12:30:04.653Z,24.80
2023-03-01T12:33:04.417Z,24.80
2023-03-01T12:35:44.080Z,24.70
2023-03-01T12:38:46.676Z,24.70
2023-03-01T12:41:37.483Z,24.80
2023-03-01T12:44:25.651Z,24.70
2023-03-01T12:47:00.913Z,24.70
2023-03-01T12:49:37.998Z,24.70
2023-03-01T12:52:28.213Z,24.70
2023-03-01T12:55:04.972Z,24.70
2023-03-01T12:57:45.478Z,24.70
2023-03-01T13:00:43.738Z,24.70
2023-03-01T13:03:50.230Z,24.70
2023-03-01T13:06:41.375Z,24.70
2023-03-01T13:09:41.400Z,24.60
2023-03-01T13:12:55.062Z,24.60
2023-03-01T13:15:30.636Z,24.60
2023-03-01T13:18:03.638Z,24.60
2023-03-01T13:20:37.887Z,24.60
2023-03-01T13:23:15.060Z,24.60
2023-03-01T13:26:21.695Z,24.60
2023-03-01T13:28:54.954Z,24.60
2023-03-01T13:31:27.805Z,24.60
2023-03-01T13:34:10.028Z,24.50
2023-03-01T13:36:40.216Z,24.60
2023-03-01T13:39:36.613Z,24.50
2023-03-01T13:42:07.411Z,24.60
2023-03-01T13:44:38.818Z,24.50
2023-03-01T13:47:20.370Z,24.50
2023-03-01T13:50:06.612Z,24.50
2023-03-01T13:53:09.914Z,24.50
2023-03-01T13:55:53.811Z,24.50
2023-03-01T13:58:35.709Z,24.40
2023-03-01T14:01:11.241Z,24.50
2023-03-01T14:03:45.558Z,24.50
2023-03-01T14:06:28.583Z,24.40
2023-03-01T14:09:30.741Z,24.50
2023-03-01T14:12:18.120Z,24.40
2023-03-01T14:15:00.302Z,24.40
2023-03-01T14:18:02.480Z,24.40
2023-03-01T14:20:42.687Z,24.40
2023-03-01T14:23:17.083Z,24.40
2023-03-01T14:26:06.395Z,24.40
2023-03-01T14:28:39.980Z,24.40
2023-03-01T14:31:31.747Z,24.30
2023-03-01T14:34:03.996Z,24.30
2023-03-01T14:36:37.242Z,24.30
2023-03-01T14:39:27.496Z,24.30
2023-03-01T14:42:02.573Z,24.30
2023-03-01T14:44:40.074Z,24.30
2023-03-01T14:47:14.451Z,24.30
2023-03-01T14:49:45.299Z,24.30
2023-03-01T14:52:37.432Z,24.30
2023-03-01T14:55:37.726Z,24.30
2023-03-01T14:58:18.261Z,24.30
2023-03-01T15:01:21.377Z,24.30
2023-03-01T15:03:54.121Z,24.30
2023-03-01T15:06:26.642Z,24.20
2023-03-01T15:08:59.582Z,24.20
2023-03-01T15:11:35.029Z,24.20
2023-03-01T15:14:24.915Z,24.20
2023-03-01T15:16:55.136Z,24.20
2023-03-01T15:19:29.849Z,24.10
2023-03-01T15:22:01.567Z,24.20
2023-03-01T15:24:36.061Z,24.20
2023-03-01T15:27:09.421Z,24.20
2023-03-01T15:29:43.290Z,24.10
2023-03-01T15:32:28.874Z,24.10
2023-03-01T15:35:00.279Z,24.20
2023-03-01T15:37:51.276Z,24.10
2023-03-01T15:40:36.052Z,24.10
2023-03-01T15:43:08.608Z,24.10
2023-03-01T15:45:41.398Z,24.10
2023-03-01T15:48:23.558Z,24.10
2023-03-01T15:51:04.210Z,24.10
2023-03-01T15:53:36.411Z,24.10
2023-03-01T15:56:10.066Z,24.10
2023-03-01T15:58:40.297Z,24.10
2023-03-01T16:01:21.999Z,24.10
2023-03-01T16:03:52.226Z,24.10
2023-03-01T16:06:22.556Z,24.10
2023-03-01T16:08:52.751Z,24.00
2023-03-01T16:11:24.384Z,24.10
2023-03-01T16:13:54.954Z,24.00
2023-03-01T16:16:25.624Z,24.00
2023-03-01T16:18:57.549Z,24.00
2023-03-01T16:21:29.248Z,24.00
2023-03-01T16:23:59.606Z,24.00
2023-03-01T16:26:30.348Z,24.00
2023-03-01T16:29:01.707Z,24.00
2023-03-01T16:31:32.506Z,24.00
2023-03-01T16:34:03.613Z,24.00
2023-03-01T16:36:34.956Z,24.00
2023-03-01T16:39:05.891Z,24.00
2023-03-01T16:41:36.171Z,24.00
2023-03-01T16:44:06.548Z,23.90
2023-03-01T16:46:37.026Z,23.90
2023-03-01T16:49:07.324Z,23.90
2023-03-01T16:51:38.450Z,23.90
2023-03-01T16:54:08.865Z,23.90
2023-03-01T16:56:41.262Z,23.90
2023-03-01T16:59:11.507Z,23.90
2023-03-01T17:01:43.628Z,23.90
2023-03-01T17:04:15.528Z,23.90
2023-03-01T17:06:45.766Z,23.90
2023-03-01T17:09:16.149Z,23.90
2023-03-01T17:11:46.569Z,23.90
2023-03-01T17:14:18.739Z,23.80
2023-03-01T17:16:49.201Z,23.90
2023-03-01T17:19:20.534Z,23.90
2023-03-01T17:21:50.861Z,23.90
2023-03-01T17:24:21.134Z,23.80
2023-03-01T17:26:51.551Z,23.80
2023-03-01T17:29:21.856Z,23.80
2023-03-01T17:31:52.405Z,23.80
2023-03-01T17:34:22.720Z,23.80
2023-03-01T17:36:54.117Z,23.80
2023-03-01T17:39:27.765Z,23.80
2023-03-01T17:41:59.277Z,23.80
2023-03-01T17:44:29.937Z,23.80
2023-03-01T17:47:00.764Z,23.80
2023-03-01T17:49:31.079Z,23.80
2023-03-01T17:52:02.274Z,23.80
2023-03-01T17:54:34.965Z,23.80
2023-03-01T17:57:05.311Z,23.70
2023-03-01T17:59:38.789Z,23.80
2023-03-01T18:02:09.379Z,23.80
2023-03-01T18:04:39.601Z,23.80
2023-03-01T18:07:09.859Z,23.80
2023-03-01T18:09:40.073Z,23.70
2023-03-01T18:12:10.399Z,23.70
2023-03-01T18:14:40.703Z,23.70
2023-03-01T18:17:13.571Z,23.70
2023-03-01T18:19:45.192Z,23.70
2023-03-01T18:22:16.077Z,23.70
2023-03-01T18:24:47.027Z,23.70
2023-03-01T18:27:17.298Z,23.70
2023-03-01T18:29:47.592Z,23.70
2023-03-01T18:32:17.923Z,23.70
2023-03-01T18:34:48.239Z,23.70
2023-03-01T18:37:19.730Z,23.60
2023-03-01T18:39:53.083Z,23.60
2023-03-01T18:42:23.788Z,23.70
2023-03-01T18:44:55.442Z,23.60
2023-03-01T18:47:25.637Z,23.60
2023-03-01T18:49:55.873Z,23.60
2023-03-01T18:52:26.102Z,23.60
2023-03-01T18:54:56.399Z,23.60
2023-03-01T18:57:26.610Z,23.60
2023-03-01T18:59:56.834Z,23.60
2023-03-01T19:02:27.157Z,23.60
2023-03-01T19:04:57.490Z,23.60
2023-03-01T19:07:27.747Z,23.60
2023-03-01T19:09:57.999Z,23.60
2023-03-01T19:12:29.824Z,23.60
2023-03-01T19:15:00.172Z,23.60
2023-03-01T19:17:32.759Z,23.60
2023-03-01T19:20:03.053Z,23.60
2023-03-01T19:22:33.483Z,23.60
2023-03-01T19:25:03.987Z,23.60
2023-03-01T19:27:34.458Z,23.60
2023-03-01T19:30:04.822Z,23.60
2023-03-01T19:32:36.348Z,23.60
2023-03-01T19:35:07.115Z,23.60
2023-03-01T19:37:37.905Z,23.60
2023-03-01T19:40:09.015Z,23.60
2023-03-01T19:42:39.397Z,23.60
2023-03-01T19:45:10.233Z,23.50
2023-03-01T19:47:40.531Z,23.50
2023-03-01T19:50:11.340Z,23.50
2023-03-01T19:52:41.594Z,23.50
2023-03-01T19:55:12.267Z,23.50
2023-03-01T19:57:42.422Z,23.50
2023-03-01T20:00:13.174Z,23.50
2023-03-01T20:02:43.607Z,23.50
2023-03-01T20:05:13.834Z,23.50
2023-03-01T20:07:44.632Z,23.50
2023-03-01T20:10:15.969Z,23.50
2023-03-01T20:12:46.530Z,23.50
2023-03-01T20:15:16.719Z,23.50
2023-03-01T20:17:47.223Z,23.50
2023-03-01T20:20:17.600Z,23.50
2023-03-01T20:22:47.839Z,23.50
2023-03-01T20:25:18.326Z,23.50
2023-03-01T20:27:49.129Z,23.40
2023-03-01T20:30:19.922Z,23.40
2023-03-01T20:32:50.222Z,23.40
2023-03-01T20:35:20.730Z,23.40
2023-03-01T20:37:54.371Z,23.40
2023-03-01T20:40:28.548Z,23.40
2023-03-01T20:42:59.286Z,23.40
2023-03-01T20:45:29.802Z,23.40
2023-03-01T20:47:59.979Z,23.40
2023-03-01T20:50:30.176Z,23.40
2023-03-01T20:53:00.811Z,23.40
2023-03-01T20:55:31.117Z,23.40
2023-03-01T20:58:01.321Z,23.40
2023-03-01T21:00:31.970Z,23.40
2023-03-01T21:03:02.509Z,23.40
2023-03-01T21:05:32.946Z,23.40
2023-03-01T21:08:04.558Z,23.40
2023-03-01T21:10:36.269Z,23.40
2023-03-01T21:13:06.505Z,23.40
2023-03-01T21:15:36.707Z,23.40
2023-03-01T21:18:06.944Z,23.40
2023-03-01T21:20:44.382Z,23.40
2023-03-01T21:23:14.743Z,23.40
2023-03-01T21:25:45.048Z,23.40
2023-03-01T21:28:15.290Z,23.40
2023-03-01T21:30:45.525Z,23.40
2023-03-01T21:33:15.721Z,23.40
2023-03-01T21:35:46.003Z,23.40
2023-03-01T21:40:59.402Z,23.40
2023-03-01T21:43:29.701Z,23.40
2023-03-01T21:46:03.055Z,23.40
2023-03-01T21:48:33.934Z,23.40
2023-03-01T21:51:05.354Z,23.40
2023-03-01T21:53:37.543Z,23.40
2023-03-01T21:56:08.866Z,23.40
2023-03-01T21:58:39.448Z,23.40
2023-03-01T22:01:12.637Z,23.40
2023-03-01T22:03:48.821Z,23.40
2023-03-01T22:06:26.285Z,23.40
2023-03-01T22:09:07.620Z,23.40
2023-03-01T22:11:41.098Z,23.40
2023-03-01T22:14:13.859Z,23.40
2023-03-01T22:16:47.078Z,23.40
2023-03-01T22:19:19.580Z,23.40
2023-03-01T22:21:52.885Z,23.40
2023-03-01T22:24:26.807Z,23.50
2023-03-01T22:26:57.557Z,23.50
2023-03-01T22:29:31.256Z,23.50
2023-03-01T22:32:02.433Z,23.50
2023-03-01T22:34:34.329Z,23.50
2023-03-01T22:37:05.465Z,23.50
2023-03-01T22:39:35.640Z,23.50
2023-03-01T22:42:07.674Z,23.50
2023-03-01T22:44:38.057Z,23.50
2023-03-01T22:47:08.367Z,23.50
2023-03-01T22:49:38.804Z,23.50
2023-03-01T22:52:09.073Z,23.50
2023-03-01T22:54:39.331Z,23.50
2023-03-01T22:57:10.799Z,23.50
2023-03-01T22:59:41.076Z,23.50
2023-03-01T23:02:12.147Z,23.60
2023-03-01T23:04:42.466Z,23.60
2023-03-01T23:07:12.705Z,23.60
2023-03-01T23:09:42.996Z,23.60
2023-03-01T23:12:14.385Z,23.60
2023-03-01T23:14:44.733Z,23.60
2023-03-01T23:17:16.310Z,23.60
2023-03-01T23:19:46.639Z,23.60
2023-03-01T23:22:17.272Z,23.60
2023-03-01T23:24:47.769Z,23.60
2023-03-01T23:27:18.872Z,23.60
2023-03-01T23:29:49.419Z,23.60
2023-03-01T23:32:19.855Z,23.60
2023-03-01T23:34:50.128Z,23.60
2023-03-01T23:37:20.849Z,23.60
2023-03-01T23:39:51.179Z,23.60
2023-03-01T23:42:21.456Z,23.60
2023-03-01T23:44:51.625Z,23.60
2023-03-01T23:47:21.817Z,23.60
2023-03-01T23:49:53.156Z,23.60
2023-03-01T23:52:23.365Z,23.70
2023-03-01T23:54:53.688Z,23.60
2023-03-01T23:57:23.905Z,23.70
2023-03-01T23:59:54.131Z,23.70
